createdAt,value
2018-02-07T00:01:29.198Z,-1.34
2018-02-07T00:03:57.483Z,-1.43
2018-02-07T00:06:25.776Z,-1.31
2018-02-07T00:08:54.054Z,-1.22
2018-02-07T00:11:23.125Z,-1.43
2018-02-07T00:13:51.411Z,-1.50
2018-02-07T00:16:19.707Z,-1.55
2018-02-07T00:18:47.975Z,-1.50
2018-02-07T00:21:16.268Z,-1.39
2018-02-07T00:23:45.326Z,-1.33
2018-02-07T00:26:13.628Z,-1.35
2018-02-07T00:28:41.931Z,-1.52
2018-02-07T00:31:10.992Z,-1.61
2018-02-07T00:33:39.273Z,-1.46
2018-02-07T00:36:07.595Z,-1.60
2018-02-07T00:38:36.627Z,-1.48
2018-02-07T00:41:04.943Z,-1.61
2018-02-07T00:43:33.214Z,-1.52
2018-02-07T00:46:01.523Z,-1.54
2018-02-07T00:48:30.555Z,-1.60
2018-02-07T00:50:58.844Z,-1.62
2018-02-07T00:53:27.142Z,-1.61
2018-02-07T00:55:55.422Z,-1.77
2018-02-07T00:58:23.974Z,-1.78
2018-02-07T01:00:52.258Z,-1.68
2018-02-07T01:03:20.520Z,-1.70
2018-02-07T01:05:48.808Z,-1.77
2018-02-07T01:08:17.068Z,-1.86
2018-02-07T01:10:45.374Z,-1.69
2018-02-07T01:13:13.638Z,-1.77
2018-02-07T01:15:41.949Z,-1.88
2018-02-07T01:18:10.231Z,-1.98
2018-02-07T01:20:38.509Z,-1.86
2018-02-07T01:23:06.817Z,-1.74
2018-02-07T01:25:35.847Z,-1.84
2018-02-07T01:28:04.416Z,-2.06
2018-02-07T01:30:32.721Z,-2.02
2018-02-07T01:33:00.986Z,-1.96
2018-02-07T01:35:29.292Z,-1.99
2018-02-07T01:37:57.576Z,-1.85
2018-02-07T01:40:25.866Z,-2.10
2018-02-07T01:42:54.127Z,-1.99
2018-02-07T01:45:22.444Z,-2.13
2018-02-07T01:47:51.486Z,-2.11
2018-02-07T01:50:19.762Z,-1.99
2018-02-07T01:52:48.080Z,-2.07
2018-02-07T01:55:17.136Z,-2.12
2018-02-07T01:57:45.444Z,-1.99
2018-02-07T02:00:13.716Z,-2.08
2018-02-07T02:02:42.007Z,-2.21
2018-02-07T02:05:10.287Z,-2.22
2018-02-07T02:07:39.328Z,-2.11
2018-02-07T02:10:07.661Z,-2.18
2018-02-07T02:12:36.708Z,-2.23
2018-02-07T02:15:05.017Z,-2.09
2018-02-07T02:17:33.279Z,-2.10
2018-02-07T02:20:01.571Z,-2.22
2018-02-07T02:22:29.890Z,-2.12
2018-02-07T02:24:58.951Z,-2.01
2018-02-07T02:27:27.264Z,-2.10
2018-02-07T02:29:56.307Z,-2.12
2018-02-07T02:32:24.593Z,-2.18
2018-02-07T02:34:52.900Z,-2.12
2018-02-07T02:37:21.964Z,-2.14
2018-02-07T02:39:50.526Z,-2.00
2018-02-07T02:42:18.799Z,-2.10
2018-02-07T02:44:47.088Z,-2.10
2018-02-07T02:47:15.362Z,-2.09
2018-02-07T02:49:43.655Z,-2.10
2018-02-07T02:52:11.935Z,-2.05
2018-02-07T02:54:40.222Z,-2.06
2018-02-07T02:57:08.567Z,-2.06
2018-02-07T02:59:36.837Z,-2.12
2018-02-07T03:02:05.121Z,-2.15
2018-02-07T03:04:33.431Z,-2.08
2018-02-07T03:07:01.702Z,-2.19
2018-02-07T03:09:30.002Z,-2.08
2018-02-07T03:11:58.279Z,-2.20
2018-02-07T03:14:26.544Z,-2.22
2018-02-07T03:16:54.849Z,-2.24
2018-02-07T03:19:23.911Z,-2.09
2018-02-07T03:21:52.187Z,-2.28
2018-02-07T03:24:20.464Z,-2.30
2018-02-07T03:26:48.780Z,-2.36
2018-02-07T03:29:17.824Z,-2.25
2018-02-07T03:31:46.120Z,-2.27
2018-02-07T03:34:14.389Z,-2.31
2018-02-07T03:36:42.656Z,-2.43
2018-02-07T03:39:10.974Z,-2.32
2018-02-07T03:41:39.260Z,-2.33
2018-02-07T03:44:08.304Z,-2.28
2018-02-07T03:46:36.622Z,-2.43
2018-02-07T03:49:04.914Z,-2.42
2018-02-07T03:51:33.973Z,-2.56
2018-02-07T03:54:02.265Z,-2.47
2018-02-07T03:56:31.622Z,-2.56
2018-02-07T03:58:59.899Z,-2.55
2018-02-07T04:01:28.179Z,-2.53
2018-02-07T04:03:56.467Z,-2.56
2018-02-07T04:06:24.758Z,-2.70
2018-02-07T04:08:53.036Z,-2.67
2018-02-07T04:11:21.331Z,-2.78
2018-02-07T04:13:49.599Z,-2.60
2018-02-07T04:16:17.914Z,-2.53
2018-02-07T04:18:46.945Z,-2.50
2018-02-07T04:21:15.276Z,-2.48
2018-02-07T04:23:43.512Z,-2.47
2018-02-07T04:26:11.790Z,-2.47
2018-02-07T04:28:40.104Z,-2.49
2018-02-07T04:31:08.396Z,-2.52
2018-02-07T04:33:37.462Z,-2.60
2018-02-07T04:36:05.761Z,-2.57
2018-02-07T04:38:34.047Z,-2.59
2018-02-07T04:41:03.093Z,-2.64
2018-02-07T04:43:31.393Z,-2.64
2018-02-07T04:45:59.680Z,-2.67
2018-02-07T04:48:27.999Z,-2.73
2018-02-07T04:50:56.277Z,-2.73
2018-02-07T04:53:24.583Z,-2.69
2018-02-07T04:55:52.880Z,-2.76
2018-02-07T04:58:21.164Z,-2.80
2018-02-07T05:00:49.454Z,-2.79
2018-02-07T05:03:17.715Z,-2.83
2018-02-07T05:05:46.004Z,-2.84
2018-02-07T05:08:14.287Z,-2.87
2018-02-07T05:10:42.580Z,-2.91
2018-02-07T05:13:11.652Z,-2.84
2018-02-07T05:15:39.917Z,-2.89
2018-02-07T05:18:08.189Z,-2.91
2018-02-07T05:20:36.476Z,-2.96
2018-02-07T05:23:04.772Z,-2.96
2018-02-07T05:25:33.040Z,-2.96
2018-02-07T05:28:01.336Z,-2.92
2018-02-07T05:30:29.612Z,-2.93
2018-02-07T05:32:57.945Z,-3.00
2018-02-07T05:35:26.245Z,-3.01
2018-02-07T05:37:54.560Z,-3.07
2018-02-07T05:40:23.629Z,-3.14
2018-02-07T05:42:51.909Z,-3.24
2018-02-07T05:45:20.217Z,-3.15
2018-02-07T05:47:49.263Z,-3.09
2018-02-07T05:50:17.614Z,-3.12
2018-02-07T05:52:46.659Z,-3.14
2018-02-07T05:55:14.955Z,-3.08
2018-02-07T05:57:43.226Z,-3.12
2018-02-07T06:00:11.520Z,-3.15
2018-02-07T06:02:39.803Z,-3.23
2018-02-07T06:05:08.094Z,-3.18
2018-02-07T06:07:36.386Z,-3.26
2018-02-07T06:10:04.662Z,-3.24
2018-02-07T06:12:32.938Z,-3.43
2018-02-07T06:15:02.006Z,-3.31
2018-02-07T06:17:31.451Z,-3.39
2018-02-07T06:19:59.732Z,-3.41
2018-02-07T06:22:28.025Z,-3.34
2018-02-07T06:24:56.300Z,-3.45
2018-02-07T06:27:24.587Z,-3.47
2018-02-07T06:29:52.888Z,-3.38
2018-02-07T06:32:21.949Z,-3.41
2018-02-07T06:34:50.260Z,-3.39
2018-02-07T06:37:18.535Z,-3.50
2018-02-07T06:39:46.831Z,-3.63
2018-02-07T06:42:15.127Z,-3.71
2018-02-07T06:44:43.393Z,-3.65
2018-02-07T06:47:11.693Z,-3.52
2018-02-07T06:49:39.990Z,-3.52
2018-02-07T06:52:08.305Z,-3.50
2018-02-07T06:54:36.592Z,-3.57
2018-02-07T06:57:04.858Z,-3.54
2018-02-07T06:59:33.154Z,-3.49
2018-02-07T07:02:01.424Z,-3.62
2018-02-07T07:04:30.503Z,-3.67
2018-02-07T07:06:58.763Z,-3.55
2018-02-07T07:09:27.083Z,-3.49
2018-02-07T07:11:55.340Z,-3.43
2018-02-07T07:14:23.628Z,-3.44
2018-02-07T07:16:52.714Z,-3.38
2018-02-07T07:19:20.969Z,-3.43
2018-02-07T07:21:49.255Z,-3.51
2018-02-07T07:24:17.545Z,-3.51
2018-02-07T07:26:45.835Z,-3.40
2018-02-07T07:29:14.878Z,-3.40
2018-02-07T07:31:43.166Z,-3.53
2018-02-07T07:34:11.444Z,-3.41
2018-02-07T07:36:39.715Z,-3.44
2018-02-07T07:39:08.016Z,-3.41
2018-02-07T07:41:36.304Z,-3.31
2018-02-07T07:44:04.609Z,-3.33
2018-02-07T07:46:32.975Z,-3.26
2018-02-07T07:49:01.249Z,-3.29
2018-02-07T07:51:30.011Z,-3.20
2018-02-07T07:53:58.272Z,-3.15
2018-02-07T07:56:26.540Z,-3.05
2018-02-07T07:58:54.861Z,-3.05
2018-02-07T08:01:23.137Z,-2.97
2018-02-07T08:03:51.547Z,-3.00
2018-02-07T08:06:20.570Z,-2.93
2018-02-07T08:08:48.872Z,-3.00
2018-02-07T08:11:17.161Z,-2.94
2018-02-07T08:13:45.451Z,-2.88
2018-02-07T08:16:13.761Z,-2.76
2018-02-07T08:18:42.819Z,-2.73
2018-02-07T08:21:11.110Z,-2.57
2018-02-07T08:23:39.367Z,-2.48
2018-02-07T08:26:07.670Z,-2.33
2018-02-07T08:28:35.987Z,-2.36
2018-02-07T08:31:04.323Z,-2.27
2018-02-07T08:33:32.604Z,-2.13
2018-02-07T08:36:00.887Z,-2.15
2018-02-07T08:38:29.176Z,-1.99
2018-02-07T08:40:58.229Z,-1.86
2018-02-07T08:43:26.523Z,-1.74
2018-02-07T08:45:55.121Z,-1.71
2018-02-07T08:48:23.398Z,-1.49
2018-02-07T08:50:51.685Z,-1.36
2018-02-07T08:53:20.777Z,-1.21
2018-02-07T08:55:49.051Z,-1.04
2018-02-07T08:58:18.114Z,-0.81
2018-02-07T09:00:46.421Z,-0.66
2018-02-07T09:03:14.719Z,-0.52
2018-02-07T09:05:43.040Z,-0.38
2018-02-07T09:08:11.320Z,-0.29
2018-02-07T09:10:40.026Z,-0.20
2018-02-07T09:13:08.313Z,-0.11
2018-02-07T09:15:36.575Z,-0.07
2018-02-07T09:18:04.945Z,-0.06
2018-02-07T09:20:33.243Z,0.00
2018-02-07T09:23:01.567Z,0.01
2018-02-07T09:25:29.863Z,0.14
2018-02-07T09:27:58.240Z,0.14
2018-02-07T09:30:26.940Z,0.18
2018-02-07T09:32:55.235Z,0.25
2018-02-07T09:35:23.534Z,0.28
2018-02-07T09:37:52.142Z,0.31
2018-02-07T09:40:21.461Z,0.31
2018-02-07T09:42:49.734Z,0.30
2018-02-07T09:45:18.018Z,0.31
2018-02-07T09:47:46.326Z,0.33
2018-02-07T09:50:14.606Z,0.32
2018-02-07T09:52:42.996Z,0.32
2018-02-07T09:55:11.300Z,0.33
2018-02-07T09:57:39.621Z,0.37
2018-02-07T10:00:07.914Z,0.41
2018-02-07T10:02:36.184Z,0.45
2018-02-07T10:05:04.484Z,0.53
2018-02-07T10:07:32.792Z,0.53
2018-02-07T10:10:01.083Z,0.63
2018-02-07T10:12:29.383Z,0.72
2018-02-07T10:14:57.686Z,0.82
2018-02-07T10:17:25.982Z,0.86
2018-02-07T10:19:54.252Z,0.90
2018-02-07T10:22:22.562Z,0.98
2018-02-07T10:24:50.851Z,1.03
2018-02-07T10:27:19.154Z,1.06
2018-02-07T10:29:47.425Z,1.07
2018-02-07T10:32:15.722Z,1.08
2018-02-07T10:34:44.019Z,1.15
2018-02-07T10:37:12.310Z,1.11
2018-02-07T10:39:41.378Z,1.09
2018-02-07T10:42:09.673Z,1.12
2018-02-07T10:44:38.264Z,1.14
2018-02-07T10:47:06.586Z,1.24
2018-02-07T10:49:34.842Z,1.28
2018-02-07T10:52:03.941Z,1.29
2018-02-07T10:54:32.236Z,1.27
2018-02-07T10:57:00.956Z,1.28
2018-02-07T10:59:29.239Z,1.32
2018-02-07T11:01:57.516Z,1.38
2018-02-07T11:04:25.848Z,1.39
2018-02-07T11:06:54.170Z,1.43
2018-02-07T11:09:22.886Z,1.45
2018-02-07T11:11:51.190Z,1.44
2018-02-07T11:14:20.282Z,1.48
2018-02-07T11:16:48.664Z,1.59
2018-02-07T11:19:17.033Z,1.64
2018-02-07T11:21:45.412Z,1.65
2018-02-07T11:24:13.776Z,1.69
2018-02-07T11:26:42.081Z,1.64
2018-02-07T11:29:11.129Z,1.61
2018-02-07T11:31:39.441Z,1.68
2018-02-07T11:34:07.776Z,1.63
2018-02-07T11:36:36.121Z,1.59
2018-02-07T11:39:04.441Z,1.68
2018-02-07T11:41:32.708Z,1.79
2018-02-07T11:44:01.006Z,1.84
2018-02-07T11:46:29.335Z,1.79
2018-02-07T11:48:58.402Z,1.85
2018-02-07T11:51:27.250Z,1.91
2018-02-07T11:53:55.543Z,1.96
2018-02-07T11:56:24.585Z,2.00
2018-02-07T11:58:52.888Z,1.96
2018-02-07T12:01:21.228Z,1.95
2018-02-07T12:03:49.533Z,1.99
2018-02-07T12:06:17.809Z,2.06
2018-02-07T12:08:46.890Z,2.10
2018-02-07T12:11:15.150Z,2.12
2018-02-07T12:13:43.447Z,2.18
2018-02-07T12:16:12.519Z,2.09
2018-02-07T12:18:40.792Z,2.14
2018-02-07T12:21:09.075Z,2.10
2018-02-07T12:23:37.364Z,2.19
2018-02-07T12:26:05.630Z,2.27
2018-02-07T12:28:33.933Z,2.28
2018-02-07T12:31:02.231Z,2.32
2018-02-07T12:33:30.539Z,2.38
2018-02-07T12:35:58.808Z,2.41
2018-02-07T12:38:27.111Z,2.46
2018-02-07T12:40:55.390Z,2.43
2018-02-07T12:43:23.680Z,2.50
2018-02-07T12:45:51.985Z,2.49
2018-02-07T12:48:21.033Z,2.48
2018-02-07T12:50:49.323Z,2.47
2018-02-07T12:53:17.590Z,2.45
2018-02-07T12:55:45.859Z,2.46
2018-02-07T12:58:14.164Z,2.47
2018-02-07T13:00:42.446Z,2.52
2018-02-07T13:03:10.746Z,2.58
2018-02-07T13:05:39.873Z,2.62
2018-02-07T13:08:08.180Z,2.69
2018-02-07T13:10:36.457Z,2.74
2018-02-07T13:13:04.735Z,2.76
2018-02-07T13:15:33.023Z,2.84
2018-02-07T13:18:01.274Z,2.82
2018-02-07T13:20:30.060Z,2.79
2018-02-07T13:22:58.342Z,2.83
2018-02-07T13:25:26.627Z,2.79
2018-02-07T13:27:54.925Z,2.72
2018-02-07T13:30:23.208Z,2.75
2018-02-07T13:32:51.500Z,2.86
2018-02-07T13:35:19.780Z,2.93
2018-02-07T13:37:48.082Z,3.00
2018-02-07T13:40:16.367Z,3.05
2018-02-07T13:42:44.661Z,3.04
2018-02-07T13:45:12.932Z,3.12
2018-02-07T13:47:41.226Z,3.06
2018-02-07T13:50:09.557Z,3.13
2018-02-07T13:52:37.794Z,3.14
2018-02-07T13:55:06.079Z,3.10
2018-02-07T13:57:34.377Z,3.09
2018-02-07T14:00:02.658Z,3.00
2018-02-07T14:02:30.934Z,2.99
2018-02-07T14:04:59.219Z,3.03
2018-02-07T14:07:28.281Z,3.06
2018-02-07T14:09:56.539Z,3.02
2018-02-07T14:12:24.846Z,3.03
2018-02-07T14:14:53.141Z,2.97
2018-02-07T14:17:22.206Z,2.99
2018-02-07T14:19:50.484Z,3.01
2018-02-07T14:22:19.550Z,2.93
2018-02-07T14:24:47.868Z,2.92
2018-02-07T14:27:16.154Z,2.94
2018-02-07T14:29:44.453Z,2.87
2018-02-07T14:32:12.741Z,2.89
2018-02-07T14:34:41.788Z,2.84
2018-02-07T14:37:10.065Z,2.82
2018-02-07T14:39:38.353Z,2.79
2018-02-07T14:42:06.683Z,2.80
2018-02-07T14:44:34.945Z,2.80
2018-02-07T14:47:04.022Z,2.83
2018-02-07T14:49:32.296Z,2.87
2018-02-07T14:52:00.582Z,2.83
2018-02-07T14:54:28.886Z,2.84
2018-02-07T14:56:57.141Z,2.75
2018-02-07T14:59:26.222Z,2.72
2018-02-07T15:01:54.497Z,2.69
2018-02-07T15:04:22.767Z,2.65
2018-02-07T15:06:51.058Z,2.61
2018-02-07T15:09:19.345Z,2.59
2018-02-07T15:11:47.641Z,2.55
2018-02-07T15:14:16.666Z,2.57
2018-02-07T15:16:44.959Z,2.66
2018-02-07T15:19:13.257Z,2.57
2018-02-07T15:21:41.506Z,2.53
2018-02-07T15:24:09.819Z,2.56
2018-02-07T15:26:38.075Z,2.55
2018-02-07T15:29:06.367Z,2.61
2018-02-07T15:31:34.643Z,2.66
2018-02-07T15:34:02.918Z,2.62
2018-02-07T15:36:31.217Z,2.65
2018-02-07T15:38:59.504Z,2.54
2018-02-07T15:41:27.872Z,2.49
2018-02-07T15:43:56.130Z,2.48
2018-02-07T15:46:24.449Z,2.52
2018-02-07T15:48:53.503Z,2.49
2018-02-07T15:51:21.851Z,2.39
2018-02-07T15:53:50.185Z,2.33
2018-02-07T15:56:18.472Z,2.39
2018-02-07T15:58:47.536Z,2.44
2018-02-07T16:01:15.801Z,2.39
2018-02-07T16:03:44.071Z,2.35
2018-02-07T16:06:12.415Z,2.34
2018-02-07T16:08:40.787Z,2.27
2018-02-07T16:11:09.858Z,2.25
2018-02-07T16:13:38.164Z,2.24
2018-02-07T16:16:07.343Z,2.19
2018-02-07T16:18:35.670Z,2.12
2018-02-07T16:21:03.958Z,2.13
2018-02-07T16:23:32.996Z,2.09
2018-02-07T16:26:01.468Z,2.09
2018-02-07T16:28:29.861Z,2.11
2018-02-07T16:30:58.188Z,2.11
2018-02-07T16:33:26.471Z,2.06
2018-02-07T16:35:54.809Z,2.03
2018-02-07T16:38:23.924Z,2.00
2018-02-07T16:40:52.240Z,1.93
2018-02-07T16:43:20.654Z,1.87
2018-02-07T16:45:49.072Z,1.79
2018-02-07T16:48:17.881Z,1.73
2018-02-07T16:50:46.711Z,1.62
2018-02-07T16:53:14.988Z,1.49
2018-02-07T16:55:45.496Z,1.51
2018-02-07T16:58:13.767Z,1.41
2018-02-07T17:00:42.060Z,1.35
2018-02-07T17:03:10.406Z,1.38
2018-02-07T17:05:38.792Z,1.35
2018-02-07T17:08:07.114Z,1.30
2018-02-07T17:10:35.472Z,1.26
2018-02-07T17:13:03.776Z,1.19
2018-02-07T17:15:32.514Z,1.17
2018-02-07T17:18:00.809Z,1.10
2018-02-07T17:20:29.076Z,1.06
2018-02-07T17:22:57.379Z,1.01
2018-02-07T17:25:26.061Z,0.91
2018-02-07T17:27:54.336Z,0.82
2018-02-07T17:30:22.679Z,0.84
2018-02-07T17:32:50.960Z,0.84
2018-02-07T17:35:19.270Z,0.90
2018-02-07T17:37:47.977Z,0.91
2018-02-07T17:40:16.279Z,0.97
2018-02-07T17:42:44.585Z,0.94
2018-02-07T17:45:12.884Z,0.90
2018-02-07T17:47:41.472Z,0.89
2018-02-07T17:50:10.164Z,0.92
2018-02-07T17:52:38.842Z,0.99
2018-02-07T17:55:07.152Z,1.01
2018-02-07T17:57:35.487Z,1.04
2018-02-07T18:00:03.796Z,1.12
2018-02-07T18:02:32.075Z,1.08
2018-02-07T18:05:01.001Z,1.12
2018-02-07T18:07:29.310Z,1.06
2018-02-07T18:09:57.610Z,1.04
2018-02-07T18:12:27.083Z,0.95
2018-02-07T18:14:55.388Z,0.82
2018-02-07T18:17:24.520Z,0.91
2018-02-07T18:19:52.839Z,0.94
2018-02-07T18:22:21.545Z,0.80
2018-02-07T18:24:50.624Z,0.81
2018-02-07T18:27:19.021Z,0.81
2018-02-07T18:29:47.287Z,0.78
2018-02-07T18:32:15.588Z,0.78
2018-02-07T18:34:43.888Z,0.77
2018-02-07T18:37:12.219Z,0.80
2018-02-07T18:39:40.525Z,0.70
2018-02-07T18:42:09.269Z,0.79
2018-02-07T18:44:37.570Z,0.80
2018-02-07T18:47:06.314Z,0.80
2018-02-07T18:49:34.605Z,0.83
2018-02-07T18:52:02.942Z,0.88
2018-02-07T18:54:31.252Z,0.87
2018-02-07T18:56:59.549Z,0.88
2018-02-07T18:59:28.883Z,0.84
2018-02-07T19:01:57.209Z,0.84
2018-02-07T19:04:25.496Z,0.76
2018-02-07T19:06:54.248Z,0.74
2018-02-07T19:09:22.563Z,0.76
2018-02-07T19:11:50.852Z,0.74
2018-02-07T19:14:19.177Z,0.80
2018-02-07T19:16:47.562Z,0.76
2018-02-07T19:19:15.861Z,0.73
2018-02-07T19:21:44.261Z,0.70
2018-02-07T19:24:12.639Z,0.74
2018-02-07T19:26:40.965Z,0.77
2018-02-07T19:29:09.270Z,0.80
2018-02-07T19:31:37.606Z,0.73
2018-02-07T19:34:06.730Z,0.88
2018-02-07T19:36:36.925Z,0.85
2018-02-07T19:39:05.263Z,0.75
2018-02-07T19:41:33.559Z,0.67
2018-02-07T19:44:02.743Z,0.71
2018-02-07T19:46:31.831Z,0.75
2018-02-07T19:49:00.128Z,0.81
2018-02-07T19:51:29.177Z,0.82
2018-02-07T19:53:57.442Z,0.80
2018-02-07T19:56:25.737Z,0.74
2018-02-07T19:58:54.843Z,0.69
2018-02-07T20:01:23.159Z,0.71
2018-02-07T20:03:52.214Z,0.78
2018-02-07T20:06:24.695Z,0.74
2018-02-07T20:08:52.965Z,0.72
2018-02-07T20:11:21.272Z,0.72
2018-02-07T20:13:49.577Z,0.62
2018-02-07T20:16:17.854Z,0.68
2018-02-07T20:18:46.926Z,0.72
2018-02-07T20:21:15.206Z,0.65
2018-02-07T20:23:44.257Z,0.72
2018-02-07T20:26:12.560Z,0.75
2018-02-07T20:28:40.870Z,0.74
2018-02-07T20:31:12.057Z,0.80
2018-02-07T20:33:41.062Z,0.72
2018-02-07T20:36:09.365Z,0.73
2018-02-07T20:38:37.663Z,0.70
2018-02-07T20:41:06.764Z,0.75
2018-02-07T20:43:35.844Z,0.74
2018-02-07T20:46:04.154Z,0.74
2018-02-07T20:48:32.449Z,0.76
2018-02-07T20:51:00.728Z,0.73
2018-02-07T20:53:29.038Z,0.73
2018-02-07T20:55:57.378Z,0.76
2018-02-07T20:58:25.634Z,0.78
2018-02-07T21:00:54.692Z,0.82
2018-02-07T21:03:22.989Z,0.87
2018-02-07T21:05:52.286Z,0.86
2018-02-07T21:08:20.565Z,0.81
2018-02-07T21:10:48.857Z,0.86
2018-02-07T21:13:17.939Z,0.89
2018-02-07T21:15:47.031Z,0.88
2018-02-07T21:18:15.335Z,0.99
2018-02-07T21:20:43.654Z,0.92
2018-02-07T21:23:11.957Z,0.84
2018-02-07T21:25:40.264Z,0.88
2018-02-07T21:28:09.319Z,0.87
2018-02-07T21:30:37.889Z,0.86
2018-02-07T21:33:06.216Z,0.81
2018-02-07T21:35:35.272Z,0.78
2018-02-07T21:38:03.589Z,0.89
2018-02-07T21:40:31.868Z,0.88
2018-02-07T21:43:00.966Z,0.91
2018-02-07T21:45:30.034Z,0.98
2018-02-07T21:50:37.156Z,0.94
2018-02-07T21:53:05.470Z,0.87
2018-02-07T21:55:33.938Z,0.88
2018-02-07T21:58:05.985Z,0.94
2018-02-07T22:00:34.303Z,0.99
2018-02-07T22:03:02.618Z,0.92
2018-02-07T22:05:30.922Z,0.89
2018-02-07T22:07:59.271Z,0.92
2018-02-07T22:10:27.581Z,0.99
2018-02-07T22:12:55.897Z,1.00
2018-02-07T22:15:24.219Z,0.94
2018-02-07T22:17:52.513Z,0.89
2018-02-07T22:20:20.837Z,0.88
2018-02-07T22:22:49.155Z,0.82
2018-02-07T22:25:17.448Z,0.94
2018-02-07T22:27:46.549Z,0.95
2018-02-07T22:30:15.655Z,0.92
2018-02-07T22:32:44.741Z,1.00
2018-02-07T22:35:13.964Z,0.91
2018-02-07T22:37:43.037Z,0.88
2018-02-07T22:40:12.182Z,0.97
2018-02-07T22:42:40.563Z,0.89
2018-02-07T22:45:08.879Z,0.89
2018-02-07T22:47:37.222Z,0.88
2018-02-07T22:50:05.546Z,0.86
2018-02-07T22:52:33.842Z,0.84
2018-02-07T22:55:02.944Z,0.89
2018-02-07T22:57:32.020Z,0.93
2018-02-07T23:00:00.311Z,1.01
2018-02-07T23:02:29.397Z,0.95
2018-02-07T23:04:57.696Z,0.88
2018-02-07T23:07:26.772Z,0.76
2018-02-07T23:09:55.040Z,0.72
2018-02-07T23:12:23.448Z,0.70
2018-02-07T23:14:52.511Z,0.66
2018-02-07T23:17:20.853Z,0.70
2018-02-07T23:19:49.175Z,0.84
2018-02-07T23:22:17.517Z,0.90
2018-02-07T23:24:45.854Z,0.84
2018-02-07T23:27:14.880Z,0.83
2018-02-07T23:29:43.196Z,0.79
2018-02-07T23:32:11.495Z,0.81
2018-02-07T23:34:40.561Z,0.71
2018-02-07T23:37:08.896Z,0.71
2018-02-07T23:39:37.176Z,0.69
2018-02-07T23:42:06.283Z,0.73
2018-02-07T23:44:34.586Z,0.73
2018-02-07T23:47:02.924Z,0.75
2018-02-07T23:49:31.251Z,0.76
2018-02-07T23:51:59.576Z,0.74
2018-02-07T23:54:28.658Z,0.63
2018-02-07T23:56:56.955Z,0.63
2018-02-07T23:59:26.022Z,0.74
